sensor_id;sensor_type;location;lat;lon;timestamp;temperature;humidity
10492;DHT22;5293;51.464;-2.566;2022-12-07T00:01:33;4.40;99.90
10492;DHT22;5293;51.464;-2.566;2022-12-07T00:04:01;4.40;99.90
10492;DHT22;5293;51.464;-2.566;2022-12-07T00:06:35;4.50;99.90
10492;DHT22;5293;51.464;-2.566;2022-12-07T00:09:06;4.50;99.90
10492;DHT22;5293;51.464;-2.566;2022-12-07T00:11:33;4.40;99.90
10492;DHT22;5293;51.464;-2.566;2022-12-07T00:14:01;4.40;99.90
10492;DHT22;5293;51.464;-2.566;2022-12-07T00:16:29;4.30;99.90
10492;DHT22;5293;51.464;-2.566;2022-12-07T00:18:55;4.30;99.90
10492;DHT22;5293;51.464;-2.566;2022-12-07T00:21:24;4.30;99.90
10492;DHT22;5293;51.464;-2.566;2022-12-07T00:23:51;4.30;99.90
10492;DHT22;5293;51.464;-2.566;2022-12-07T00:26:22;4.20;99.90
10492;DHT22;5293;51.464;-2.566;2022-12-07T00:28:51;4.30;99.90
10492;DHT22;5293;51.464;-2.566;2022-12-07T00:31:19;4.30;99.90
10492;DHT22;5293;51.464;-2.566;2022-12-07T00:33:46;4.30;99.90
10492;DHT22;5293;51.464;-2.566;2022-12-07T00:36:14;4.30;99.90
10492;DHT22;5293;51.464;-2.566;2022-12-07T00:38:40;4.30;99.90
10492;DHT22;5293;51.464;-2.566;2022-12-07T00:41:11;4.10;99.90
10492;DHT22;5293;51.464;-2.566;2022-12-07T00:43:44;4.20;99.90
10492;DHT22;5293;51.464;-2.566;2022-12-07T00:46:11;4.20;99.90
10492;DHT22;5293;51.464;-2.566;2022-12-07T00:48:37;4.20;99.90
10492;DHT22;5293;51.464;-2.566;2022-12-07T00:51:04;4.10;99.90
10492;DHT22;5293;51.464;-2.566;2022-12-07T00:53:29;4.20;99.90
10492;DHT22;5293;51.464;-2.566;2022-12-07T00:55:55;4.20;99.90
10492;DHT22;5293;51.464;-2.566;2022-12-07T00:58:22;4.20;99.90
10492;DHT22;5293;51.464;-2.566;2022-12-07T01:00:49;4.00;99.90
10492;DHT22;5293;51.464;-2.566;2022-12-07T01:03:15;3.90;99.90
10492;DHT22;5293;51.464;-2.566;2022-12-07T01:05:49;4.00;99.90
10492;DHT22;5293;51.464;-2.566;2022-12-07T01:08:15;3.90;99.90
10492;DHT22;5293;51.464;-2.566;2022-12-07T01:10:41;3.90;99.90
10492;DHT22;5293;51.464;-2.566;2022-12-07T01:13:06;3.90;99.90
10492;DHT22;5293;51.464;-2.566;2022-12-07T01:15:32;3.90;99.90
10492;DHT22;5293;51.464;-2.566;2022-12-07T01:17:58;4.00;99.90
10492;DHT22;5293;51.464;-2.566;2022-12-07T01:20:23;4.00;99.90
10492;DHT22;5293;51.464;-2.566;2022-12-07T01:22:49;4.00;99.90
10492;DHT22;5293;51.464;-2.566;2022-12-07T01:25:15;4.00;99.90
10492;DHT22;5293;51.464;-2.566;2022-12-07T01:27:40;3.90;99.90
10492;DHT22;5293;51.464;-2.566;2022-12-07T01:30:07;3.90;99.90
10492;DHT22;5293;51.464;-2.566;2022-12-07T01:32:33;3.90;99.90
10492;DHT22;5293;51.464;-2.566;2022-12-07T01:34:59;3.90;99.90
10492;DHT22;5293;51.464;-2.566;2022-12-07T01:37:25;3.90;99.90
10492;DHT22;5293;51.464;-2.566;2022-12-07T01:39:51;4.00;99.90
10492;DHT22;5293;51.464;-2.566;2022-12-07T01:42:17;3.90;99.90
10492;DHT22;5293;51.464;-2.566;2022-12-07T01:45:22;3.90;99.90
10492;DHT22;5293;51.464;-2.566;2022-12-07T01:47:57;3.80;99.90
10492;DHT22;5293;51.464;-2.566;2022-12-07T01:50:25;3.70;99.90
10492;DHT22;5293;51.464;-2.566;2022-12-07T01:52:53;3.70;99.90
10492;DHT22;5293;51.464;-2.566;2022-12-07T01:55:20;3.60;99.90
10492;DHT22;5293;51.464;-2.566;2022-12-07T01:57:49;3.60;99.90
10492;DHT22;5293;51.464;-2.566;2022-12-07T02:00:17;3.50;99.90
10492;DHT22;5293;51.464;-2.566;2022-12-07T02:02:47;3.50;99.90
10492;DHT22;5293;51.464;-2.566;2022-12-07T02:05:17;3.50;99.90
10492;DHT22;5293;51.464;-2.566;2022-12-07T02:07:43;3.50;99.90
10492;DHT22;5293;51.464;-2.566;2022-12-07T02:10:16;3.60;99.90
10492;DHT22;5293;51.464;-2.566;2022-12-07T02:12:46;3.40;99.90
10492;DHT22;5293;51.464;-2.566;2022-12-07T02:15:12;3.50;99.90
10492;DHT22;5293;51.464;-2.566;2022-12-07T02:17:50;3.40;99.90
10492;DHT22;5293;51.464;-2.566;2022-12-07T02:26:05;3.40;99.90
10492;DHT22;5293;51.464;-2.566;2022-12-07T02:28:33;3.40;99.90
10492;DHT22;5293;51.464;-2.566;2022-12-07T02:31:06;3.40;99.90
10492;DHT22;5293;51.464;-2.566;2022-12-07T02:33:42;3.30;99.90
10492;DHT22;5293;51.464;-2.566;2022-12-07T02:36:16;3.40;99.90
10492;DHT22;5293;51.464;-2.566;2022-12-07T02:38:59;3.30;99.90
10492;DHT22;5293;51.464;-2.566;2022-12-07T02:41:37;3.30;99.90
10492;DHT22;5293;51.464;-2.566;2022-12-07T02:44:09;3.30;99.90
10492;DHT22;5293;51.464;-2.566;2022-12-07T02:46:42;3.20;99.90
10492;DHT22;5293;51.464;-2.566;2022-12-07T02:49:09;3.30;99.90
10492;DHT22;5293;51.464;-2.566;2022-12-07T02:51:40;3.30;99.90
10492;DHT22;5293;51.464;-2.566;2022-12-07T02:54:17;3.30;99.90
10492;DHT22;5293;51.464;-2.566;2022-12-07T03:10:56;3.20;99.90
10492;DHT22;5293;51.464;-2.566;2022-12-07T03:16:27;3.20;99.90
10492;DHT22;5293;51.464;-2.566;2022-12-07T03:18:59;3.10;99.90
10492;DHT22;5293;51.464;-2.566;2022-12-07T03:22:01;3.10;99.90
10492;DHT22;5293;51.464;-2.566;2022-12-07T03:24:33;3.20;99.90
10492;DHT22;5293;51.464;-2.566;2022-12-07T03:27:19;3.20;99.90
10492;DHT22;5293;51.464;-2.566;2022-12-07T03:32:41;3.20;99.90
10492;DHT22;5293;51.464;-2.566;2022-12-07T03:35:22;3.30;99.90
10492;DHT22;5293;51.464;-2.566;2022-12-07T03:38:19;3.30;99.90
10492;DHT22;5293;51.464;-2.566;2022-12-07T03:43:23;3.30;99.90
10492;DHT22;5293;51.464;-2.566;2022-12-07T03:51:24;3.10;99.90
10492;DHT22;5293;51.464;-2.566;2022-12-07T03:53:58;3.20;99.90
10492;DHT22;5293;51.464;-2.566;2022-12-07T03:56:26;3.20;99.90
10492;DHT22;5293;51.464;-2.566;2022-12-07T03:58:54;3.20;99.90
10492;DHT22;5293;51.464;-2.566;2022-12-07T04:01:20;3.20;99.90
10492;DHT22;5293;51.464;-2.566;2022-12-07T04:03:45;3.20;99.90
10492;DHT22;5293;51.464;-2.566;2022-12-07T04:06:11;3.20;99.90
10492;DHT22;5293;51.464;-2.566;2022-12-07T04:08:37;3.10;99.90
10492;DHT22;5293;51.464;-2.566;2022-12-07T04:11:03;3.20;99.90
10492;DHT22;5293;51.464;-2.566;2022-12-07T04:13:28;3.10;99.90
10492;DHT22;5293;51.464;-2.566;2022-12-07T04:15:54;3.10;99.90
10492;DHT22;5293;51.464;-2.566;2022-12-07T04:18:19;3.00;99.90
10492;DHT22;5293;51.464;-2.566;2022-12-07T04:20:46;3.00;99.90
10492;DHT22;5293;51.464;-2.566;2022-12-07T04:23:11;3.00;99.90
10492;DHT22;5293;51.464;-2.566;2022-12-07T04:25:37;3.00;99.90
10492;DHT22;5293;51.464;-2.566;2022-12-07T04:28:03;3.00;99.90
10492;DHT22;5293;51.464;-2.566;2022-12-07T04:30:28;3.00;99.90
10492;DHT22;5293;51.464;-2.566;2022-12-07T04:32:54;3.00;99.90
10492;DHT22;5293;51.464;-2.566;2022-12-07T04:35:20;2.90;99.90
10492;DHT22;5293;51.464;-2.566;2022-12-07T04:37:45;3.00;99.90
10492;DHT22;5293;51.464;-2.566;2022-12-07T04:40:11;3.00;99.90
10492;DHT22;5293;51.464;-2.566;2022-12-07T04:42:38;3.00;99.90
10492;DHT22;5293;51.464;-2.566;2022-12-07T04:45:04;3.00;99.90
10492;DHT22;5293;51.464;-2.566;2022-12-07T04:47:30;3.00;99.90
10492;DHT22;5293;51.464;-2.566;2022-12-07T04:49:55;3.00;99.90
10492;DHT22;5293;51.464;-2.566;2022-12-07T04:52:21;3.00;99.90
10492;DHT22;5293;51.464;-2.566;2022-12-07T04:54:46;2.90;99.90
10492;DHT22;5293;51.464;-2.566;2022-12-07T04:57:12;3.00;99.90
10492;DHT22;5293;51.464;-2.566;2022-12-07T04:59:38;3.00;99.90
10492;DHT22;5293;51.464;-2.566;2022-12-07T05:02:03;2.90;99.90
10492;DHT22;5293;51.464;-2.566;2022-12-07T05:04:29;2.90;99.90
10492;DHT22;5293;51.464;-2.566;2022-12-07T05:06:54;2.90;99.90
10492;DHT22;5293;51.464;-2.566;2022-12-07T05:09:20;2.70;99.90
10492;DHT22;5293;51.464;-2.566;2022-12-07T05:11:46;2.80;99.90
10492;DHT22;5293;51.464;-2.566;2022-12-07T05:14:16;2.80;99.90
10492;DHT22;5293;51.464;-2.566;2022-12-07T05:16:44;2.80;99.90
10492;DHT22;5293;51.464;-2.566;2022-12-07T05:19:10;2.70;99.90
10492;DHT22;5293;51.464;-2.566;2022-12-07T05:21:36;2.70;99.90
10492;DHT22;5293;51.464;-2.566;2022-12-07T05:24:02;2.70;99.90
10492;DHT22;5293;51.464;-2.566;2022-12-07T05:26:28;2.80;99.90
10492;DHT22;5293;51.464;-2.566;2022-12-07T05:28:55;2.90;99.90
10492;DHT22;5293;51.464;-2.566;2022-12-07T05:31:22;2.80;99.90
10492;DHT22;5293;51.464;-2.566;2022-12-07T05:33:48;2.80;99.90
10492;DHT22;5293;51.464;-2.566;2022-12-07T05:36:14;2.80;99.90
10492;DHT22;5293;51.464;-2.566;2022-12-07T05:38:42;2.80;99.90
10492;DHT22;5293;51.464;-2.566;2022-12-07T05:41:09;2.70;99.90
10492;DHT22;5293;51.464;-2.566;2022-12-07T05:43:57;2.70;99.90
10492;DHT22;5293;51.464;-2.566;2022-12-07T05:46:22;2.70;99.90
10492;DHT22;5293;51.464;-2.566;2022-12-07T05:48:48;2.70;99.90
10492;DHT22;5293;51.464;-2.566;2022-12-07T05:51:14;2.80;99.90
10492;DHT22;5293;51.464;-2.566;2022-12-07T05:53:39;2.70;99.90
10492;DHT22;5293;51.464;-2.566;2022-12-07T05:56:05;2.80;99.90
10492;DHT22;5293;51.464;-2.566;2022-12-07T05:58:31;2.70;99.90
10492;DHT22;5293;51.464;-2.566;2022-12-07T06:01:15;2.80;99.90
10492;DHT22;5293;51.464;-2.566;2022-12-07T06:03:40;2.70;99.90
10492;DHT22;5293;51.464;-2.566;2022-12-07T06:06:06;2.60;99.90
10492;DHT22;5293;51.464;-2.566;2022-12-07T06:08:32;2.70;99.90
10492;DHT22;5293;51.464;-2.566;2022-12-07T06:10:57;2.70;99.90
10492;DHT22;5293;51.464;-2.566;2022-12-07T06:13:41;2.70;99.90
10492;DHT22;5293;51.464;-2.566;2022-12-07T06:16:07;2.80;99.90
10492;DHT22;5293;51.464;-2.566;2022-12-07T06:18:33;2.70;99.90
10492;DHT22;5293;51.464;-2.566;2022-12-07T06:20:59;2.60;99.90
10492;DHT22;5293;51.464;-2.566;2022-12-07T06:23:25;2.70;99.90
10492;DHT22;5293;51.464;-2.566;2022-12-07T06:25:50;2.60;99.90
10492;DHT22;5293;51.464;-2.566;2022-12-07T06:28:16;2.60;99.90
10492;DHT22;5293;51.464;-2.566;2022-12-07T06:30:42;2.50;99.90
10492;DHT22;5293;51.464;-2.566;2022-12-07T06:33:07;2.50;99.90
10492;DHT22;5293;51.464;-2.566;2022-12-07T06:35:33;2.50;99.90
10492;DHT22;5293;51.464;-2.566;2022-12-07T06:37:59;2.50;99.90
10492;DHT22;5293;51.464;-2.566;2022-12-07T06:40:24;2.50;99.90
10492;DHT22;5293;51.464;-2.566;2022-12-07T06:42:50;2.60;99.90
10492;DHT22;5293;51.464;-2.566;2022-12-07T06:45:16;2.50;99.90
10492;DHT22;5293;51.464;-2.566;2022-12-07T06:47:41;2.70;99.90
10492;DHT22;5293;51.464;-2.566;2022-12-07T06:50:08;2.50;99.90
10492;DHT22;5293;51.464;-2.566;2022-12-07T06:52:33;2.50;99.90
10492;DHT22;5293;51.464;-2.566;2022-12-07T06:54:59;2.50;99.90
10492;DHT22;5293;51.464;-2.566;2022-12-07T06:57:25;2.50;99.90
10492;DHT22;5293;51.464;-2.566;2022-12-07T06:59:51;2.50;99.90
10492;DHT22;5293;51.464;-2.566;2022-12-07T07:02:17;2.40;99.90
10492;DHT22;5293;51.464;-2.566;2022-12-07T07:04:43;2.40;99.90
10492;DHT22;5293;51.464;-2.566;2022-12-07T07:07:09;2.50;99.90
10492;DHT22;5293;51.464;-2.566;2022-12-07T07:09:34;2.30;99.90
10492;DHT22;5293;51.464;-2.566;2022-12-07T07:12:00;2.20;99.90
10492;DHT22;5293;51.464;-2.566;2022-12-07T07:14:26;2.20;99.90
10492;DHT22;5293;51.464;-2.566;2022-12-07T07:16:52;2.10;99.90
10492;DHT22;5293;51.464;-2.566;2022-12-07T07:19:17;2.10;99.90
10492;DHT22;5293;51.464;-2.566;2022-12-07T07:21:43;2.20;99.90
10492;DHT22;5293;51.464;-2.566;2022-12-07T07:24:10;2.20;99.90
10492;DHT22;5293;51.464;-2.566;2022-12-07T07:26:35;2.20;99.90
10492;DHT22;5293;51.464;-2.566;2022-12-07T07:29:01;2.30;99.90
10492;DHT22;5293;51.464;-2.566;2022-12-07T07:31:27;2.30;99.90
10492;DHT22;5293;51.464;-2.566;2022-12-07T07:33:53;2.30;99.90
10492;DHT22;5293;51.464;-2.566;2022-12-07T07:36:18;2.20;99.90
10492;DHT22;5293;51.464;-2.566;2022-12-07T07:38:44;2.20;99.90
10492;DHT22;5293;51.464;-2.566;2022-12-07T07:41:09;2.30;99.90
10492;DHT22;5293;51.464;-2.566;2022-12-07T07:43:35;2.40;99.90
10492;DHT22;5293;51.464;-2.566;2022-12-07T07:46:01;2.30;99.90
10492;DHT22;5293;51.464;-2.566;2022-12-07T07:48:26;2.40;99.90
10492;DHT22;5293;51.464;-2.566;2022-12-07T07:50:52;2.40;99.90
10492;DHT22;5293;51.464;-2.566;2022-12-07T07:53:18;2.30;99.90
10492;DHT22;5293;51.464;-2.566;2022-12-07T07:55:55;2.30;99.90
10492;DHT22;5293;51.464;-2.566;2022-12-07T07:58:21;2.40;99.90
10492;DHT22;5293;51.464;-2.566;2022-12-07T08:00:47;2.40;99.90
10492;DHT22;5293;51.464;-2.566;2022-12-07T08:03:13;2.40;99.90
10492;DHT22;5293;51.464;-2.566;2022-12-07T08:05:38;2.30;99.90
10492;DHT22;5293;51.464;-2.566;2022-12-07T08:08:04;2.30;99.90
10492;DHT22;5293;51.464;-2.566;2022-12-07T08:10:30;2.30;99.90
10492;DHT22;5293;51.464;-2.566;2022-12-07T08:12:58;2.20;99.90
10492;DHT22;5293;51.464;-2.566;2022-12-07T08:15:38;2.20;99.90
10492;DHT22;5293;51.464;-2.566;2022-12-07T08:18:04;2.20;99.90
10492;DHT22;5293;51.464;-2.566;2022-12-07T08:20:31;2.20;99.90
10492;DHT22;5293;51.464;-2.566;2022-12-07T08:22:57;2.20;99.90
10492;DHT22;5293;51.464;-2.566;2022-12-07T08:25:23;2.20;99.90
10492;DHT22;5293;51.464;-2.566;2022-12-07T08:27:49;2.20;99.90
10492;DHT22;5293;51.464;-2.566;2022-12-07T08:30:14;2.20;99.90
10492;DHT22;5293;51.464;-2.566;2022-12-07T08:32:40;2.30;99.90
10492;DHT22;5293;51.464;-2.566;2022-12-07T08:35:06;2.20;99.90
10492;DHT22;5293;51.464;-2.566;2022-12-07T08:37:33;2.30;99.90
10492;DHT22;5293;51.464;-2.566;2022-12-07T08:39:58;2.30;99.90
10492;DHT22;5293;51.464;-2.566;2022-12-07T08:42:24;2.30;99.90
10492;DHT22;5293;51.464;-2.566;2022-12-07T08:44:57;2.30;99.90
10492;DHT22;5293;51.464;-2.566;2022-12-07T08:47:24;2.40;99.90
10492;DHT22;5293;51.464;-2.566;2022-12-07T08:49:51;2.30;99.90
10492;DHT22;5293;51.464;-2.566;2022-12-07T08:52:18;2.40;99.90
10492;DHT22;5293;51.464;-2.566;2022-12-07T08:54:44;2.30;99.90
10492;DHT22;5293;51.464;-2.566;2022-12-07T08:57:10;2.40;99.90
10492;DHT22;5293;51.464;-2.566;2022-12-07T08:59:37;2.40;99.90
10492;DHT22;5293;51.464;-2.566;2022-12-07T09:02:04;2.40;99.90
10492;DHT22;5293;51.464;-2.566;2022-12-07T09:04:30;2.40;99.90
10492;DHT22;5293;51.464;-2.566;2022-12-07T09:06:56;2.40;99.90
10492;DHT22;5293;51.464;-2.566;2022-12-07T09:09:22;2.40;99.90
10492;DHT22;5293;51.464;-2.566;2022-12-07T09:11:48;2.40;99.90
10492;DHT22;5293;51.464;-2.566;2022-12-07T09:14:14;2.40;99.90
10492;DHT22;5293;51.464;-2.566;2022-12-07T09:16:39;2.40;99.90
10492;DHT22;5293;51.464;-2.566;2022-12-07T09:19:07;2.50;99.90
10492;DHT22;5293;51.464;-2.566;2022-12-07T09:21:33;2.50;99.90
10492;DHT22;5293;51.464;-2.566;2022-12-07T09:23:59;2.50;99.90
10492;DHT22;5293;51.464;-2.566;2022-12-07T09:26:24;2.40;99.90
10492;DHT22;5293;51.464;-2.566;2022-12-07T09:28:50;2.50;99.90
10492;DHT22;5293;51.464;-2.566;2022-12-07T09:31:16;2.60;99.90
10492;DHT22;5293;51.464;-2.566;2022-12-07T09:33:41;2.60;99.90
10492;DHT22;5293;51.464;-2.566;2022-12-07T09:36:07;2.60;99.90
10492;DHT22;5293;51.464;-2.566;2022-12-07T09:38:35;2.70;99.90
10492;DHT22;5293;51.464;-2.566;2022-12-07T09:41:07;2.70;99.90
10492;DHT22;5293;51.464;-2.566;2022-12-07T09:43:35;2.80;99.90
10492;DHT22;5293;51.464;-2.566;2022-12-07T09:46:01;2.80;99.90
10492;DHT22;5293;51.464;-2.566;2022-12-07T09:48:34;2.80;99.90
10492;DHT22;5293;51.464;-2.566;2022-12-07T09:51:02;2.80;99.90
10492;DHT22;5293;51.464;-2.566;2022-12-07T09:53:36;2.80;99.90
10492;DHT22;5293;51.464;-2.566;2022-12-07T09:56:03;2.90;99.90
10492;DHT22;5293;51.464;-2.566;2022-12-07T09:58:31;2.80;99.90
10492;DHT22;5293;51.464;-2.566;2022-12-07T10:01:01;2.90;99.90
10492;DHT22;5293;51.464;-2.566;2022-12-07T10:03:27;2.90;99.90
10492;DHT22;5293;51.464;-2.566;2022-12-07T10:05:54;2.90;99.90
10492;DHT22;5293;51.464;-2.566;2022-12-07T10:08:20;2.90;99.90
10492;DHT22;5293;51.464;-2.566;2022-12-07T10:10:50;2.90;99.90
10492;DHT22;5293;51.464;-2.566;2022-12-07T10:13:43;2.90;99.90
10492;DHT22;5293;51.464;-2.566;2022-12-07T10:16:31;3.00;99.90
10492;DHT22;5293;51.464;-2.566;2022-12-07T10:19:27;3.00;99.90
10492;DHT22;5293;51.464;-2.566;2022-12-07T10:24:34;3.10;99.90
10492;DHT22;5293;51.464;-2.566;2022-12-07T10:27:00;3.20;99.90
10492;DHT22;5293;51.464;-2.566;2022-12-07T10:29:36;3.30;99.90
10492;DHT22;5293;51.464;-2.566;2022-12-07T10:32:04;3.30;99.90
10492;DHT22;5293;51.464;-2.566;2022-12-07T10:34:37;3.30;99.90
10492;DHT22;5293;51.464;-2.566;2022-12-07T10:39:47;3.40;99.90
10492;DHT22;5293;51.464;-2.566;2022-12-07T10:44:42;3.50;99.90
10492;DHT22;5293;51.464;-2.566;2022-12-07T10:47:34;3.70;99.90
10492;DHT22;5293;51.464;-2.566;2022-12-07T10:50:11;3.80;99.90
10492;DHT22;5293;51.464;-2.566;2022-12-07T10:53:12;3.90;99.90
10492;DHT22;5293;51.464;-2.566;2022-12-07T11:02:02;4.40;99.90
10492;DHT22;5293;51.464;-2.566;2022-12-07T11:26:34;5.00;99.90
10492;DHT22;5293;51.464;-2.566;2022-12-07T11:37:13;5.30;99.90
10492;DHT22;5293;51.464;-2.566;2022-12-07T11:39:56;5.30;99.90
10492;DHT22;5293;51.464;-2.566;2022-12-07T11:42:27;5.30;99.90
10492;DHT22;5293;51.464;-2.566;2022-12-07T11:45:14;5.30;99.90
10492;DHT22;5293;51.464;-2.566;2022-12-07T11:50:37;5.30;99.90
10492;DHT22;5293;51.464;-2.566;2022-12-07T11:55:52;5.30;99.90
10492;DHT22;5293;51.464;-2.566;2022-12-07T11:58:48;5.30;99.90
10492;DHT22;5293;51.464;-2.566;2022-12-07T12:03:50;5.30;99.90
10492;DHT22;5293;51.464;-2.566;2022-12-07T12:06:16;5.50;99.90
10492;DHT22;5293;51.464;-2.566;2022-12-07T12:08:55;5.40;99.90
10492;DHT22;5293;51.464;-2.566;2022-12-07T12:20:20;5.30;99.90
10492;DHT22;5293;51.464;-2.566;2022-12-07T12:25:26;5.30;99.90
10492;DHT22;5293;51.464;-2.566;2022-12-07T12:27:55;5.40;99.90
10492;DHT22;5293;51.464;-2.566;2022-12-07T12:30:36;5.50;99.90
10492;DHT22;5293;51.464;-2.566;2022-12-07T12:33:19;5.40;99.90
10492;DHT22;5293;51.464;-2.566;2022-12-07T12:39:14;5.40;99.90
10492;DHT22;5293;51.464;-2.566;2022-12-07T12:46:47;5.50;99.90
10492;DHT22;5293;51.464;-2.566;2022-12-07T12:51:49;5.40;99.90
10492;DHT22;5293;51.464;-2.566;2022-12-07T13:02:32;5.60;99.90
10492;DHT22;5293;51.464;-2.566;2022-12-07T13:13:25;5.60;99.90
10492;DHT22;5293;51.464;-2.566;2022-12-07T13:16:40;5.70;99.90
10492;DHT22;5293;51.464;-2.566;2022-12-07T13:18:39;5.70;99.90
10492;DHT22;5293;51.464;-2.566;2022-12-07T13:31:56;5.70;99.90
10492;DHT22;5293;51.464;-2.566;2022-12-07T13:34:38;5.80;99.90
10492;DHT22;5293;51.464;-2.566;2022-12-07T13:37:30;5.80;99.90
10492;DHT22;5293;51.464;-2.566;2022-12-07T13:40:15;5.60;99.90
10492;DHT22;5293;51.464;-2.566;2022-12-07T13:42:44;5.70;99.90
10492;DHT22;5293;51.464;-2.566;2022-12-07T13:45:28;5.70;99.90
10492;DHT22;5293;51.464;-2.566;2022-12-07T13:48:43;5.70;99.90
10492;DHT22;5293;51.464;-2.566;2022-12-07T13:51:24;5.60;99.90
10492;DHT22;5293;51.464;-2.566;2022-12-07T13:53:59;5.70;99.90
10492;DHT22;5293;51.464;-2.566;2022-12-07T13:56:32;5.70;99.90
10492;DHT22;5293;51.464;-2.566;2022-12-07T13:58:58;5.70;99.90
10492;DHT22;5293;51.464;-2.566;2022-12-07T14:01:24;5.70;99.90
10492;DHT22;5293;51.464;-2.566;2022-12-07T14:03:50;5.70;99.90
10492;DHT22;5293;51.464;-2.566;2022-12-07T14:06:25;5.70;99.90
10492;DHT22;5293;51.464;-2.566;2022-12-07T14:09:20;5.50;99.90
10492;DHT22;5293;51.464;-2.566;2022-12-07T14:11:47;5.50;99.90
10492;DHT22;5293;51.464;-2.566;2022-12-07T14:14:49;5.60;99.90
10492;DHT22;5293;51.464;-2.566;2022-12-07T14:17:22;5.60;99.90
10492;DHT22;5293;51.464;-2.566;2022-12-07T14:25:25;5.60;99.90
10492;DHT22;5293;51.464;-2.566;2022-12-07T14:27:56;5.60;99.90
10492;DHT22;5293;51.464;-2.566;2022-12-07T14:30:26;5.60;99.90
10492;DHT22;5293;51.464;-2.566;2022-12-07T14:32:57;5.60;99.90
10492;DHT22;5293;51.464;-2.566;2022-12-07T14:35:23;5.60;99.90
10492;DHT22;5293;51.464;-2.566;2022-12-07T14:37:49;5.50;99.90
10492;DHT22;5293;51.464;-2.566;2022-12-07T14:40:18;6.20;99.90
10492;DHT22;5293;51.464;-2.566;2022-12-07T14:42:46;5.60;99.90
10492;DHT22;5293;51.464;-2.566;2022-12-07T14:45:31;5.50;99.90
10492;DHT22;5293;51.464;-2.566;2022-12-07T14:47:56;5.60;99.90
10492;DHT22;5293;51.464;-2.566;2022-12-07T14:50:22;5.60;99.90
10492;DHT22;5293;51.464;-2.566;2022-12-07T14:53:06;5.60;99.90
10492;DHT22;5293;51.464;-2.566;2022-12-07T14:55:35;5.50;99.90
10492;DHT22;5293;51.464;-2.566;2022-12-07T14:58:00;5.50;99.90
10492;DHT22;5293;51.464;-2.566;2022-12-07T15:00:27;5.50;99.90
10492;DHT22;5293;51.464;-2.566;2022-12-07T15:02:53;5.30;99.90
10492;DHT22;5293;51.464;-2.566;2022-12-07T15:05:19;5.40;99.90
10492;DHT22;5293;51.464;-2.566;2022-12-07T15:07:46;5.40;99.90
10492;DHT22;5293;51.464;-2.566;2022-12-07T15:10:19;5.30;99.90
10492;DHT22;5293;51.464;-2.566;2022-12-07T15:12:45;5.30;99.90
10492;DHT22;5293;51.464;-2.566;2022-12-07T15:15:11;5.20;99.90
10492;DHT22;5293;51.464;-2.566;2022-12-07T15:17:37;5.20;99.90
10492;DHT22;5293;51.464;-2.566;2022-12-07T15:20:03;5.10;99.90
10492;DHT22;5293;51.464;-2.566;2022-12-07T15:22:30;5.10;99.90
10492;DHT22;5293;51.464;-2.566;2022-12-07T15:24:57;5.00;99.90
10492;DHT22;5293;51.464;-2.566;2022-12-07T15:27:22;5.00;99.90
10492;DHT22;5293;51.464;-2.566;2022-12-07T15:29:48;5.00;99.90
10492;DHT22;5293;51.464;-2.566;2022-12-07T15:32:14;5.00;99.90
10492;DHT22;5293;51.464;-2.566;2022-12-07T15:34:39;4.90;99.90
10492;DHT22;5293;51.464;-2.566;2022-12-07T15:37:06;4.90;99.90
10492;DHT22;5293;51.464;-2.566;2022-12-07T15:39:31;4.80;99.90
10492;DHT22;5293;51.464;-2.566;2022-12-07T15:41:57;4.80;99.90
10492;DHT22;5293;51.464;-2.566;2022-12-07T15:44:23;4.80;99.90
10492;DHT22;5293;51.464;-2.566;2022-12-07T15:47:07;4.80;99.90
10492;DHT22;5293;51.464;-2.566;2022-12-07T15:49:32;4.70;99.90
10492;DHT22;5293;51.464;-2.566;2022-12-07T15:51:58;4.70;99.90
10492;DHT22;5293;51.464;-2.566;2022-12-07T15:54:26;4.70;99.90
10492;DHT22;5293;51.464;-2.566;2022-12-07T15:56:52;4.70;99.90
10492;DHT22;5293;51.464;-2.566;2022-12-07T15:59:18;4.70;99.90
10492;DHT22;5293;51.464;-2.566;2022-12-07T16:01:44;4.60;99.90
10492;DHT22;5293;51.464;-2.566;2022-12-07T16:04:09;4.60;99.90
10492;DHT22;5293;51.464;-2.566;2022-12-07T16:06:35;4.60;99.90
10492;DHT22;5293;51.464;-2.566;2022-12-07T16:09:01;4.60;99.90
10492;DHT22;5293;51.464;-2.566;2022-12-07T16:11:27;4.60;99.90
10492;DHT22;5293;51.464;-2.566;2022-12-07T16:13:53;4.50;99.90
10492;DHT22;5293;51.464;-2.566;2022-12-07T16:16:19;4.40;99.90
10492;DHT22;5293;51.464;-2.566;2022-12-07T16:18:48;4.40;99.90
10492;DHT22;5293;51.464;-2.566;2022-12-07T16:21:14;4.40;99.90
10492;DHT22;5293;51.464;-2.566;2022-12-07T16:23:40;4.40;99.90
10492;DHT22;5293;51.464;-2.566;2022-12-07T16:26:14;4.30;99.90
10492;DHT22;5293;51.464;-2.566;2022-12-07T16:28:41;4.20;99.90
10492;DHT22;5293;51.464;-2.566;2022-12-07T16:31:15;4.10;99.90
10492;DHT22;5293;51.464;-2.566;2022-12-07T16:33:42;4.00;99.90
10492;DHT22;5293;51.464;-2.566;2022-12-07T16:36:10;4.00;99.90
10492;DHT22;5293;51.464;-2.566;2022-12-07T16:38:36;4.00;99.90
10492;DHT22;5293;51.464;-2.566;2022-12-07T16:41:03;4.00;99.90
10492;DHT22;5293;51.464;-2.566;2022-12-07T16:43:29;3.90;99.90
10492;DHT22;5293;51.464;-2.566;2022-12-07T16:45:55;3.90;99.90
10492;DHT22;5293;51.464;-2.566;2022-12-07T16:48:20;3.80;99.90
10492;DHT22;5293;51.464;-2.566;2022-12-07T16:50:46;3.80;99.90
10492;DHT22;5293;51.464;-2.566;2022-12-07T16:53:13;3.70;99.90
10492;DHT22;5293;51.464;-2.566;2022-12-07T16:55:42;3.80;99.90
10492;DHT22;5293;51.464;-2.566;2022-12-07T16:58:08;3.80;99.90
10492;DHT22;5293;51.464;-2.566;2022-12-07T17:00:34;3.70;99.90
10492;DHT22;5293;51.464;-2.566;2022-12-07T17:03:00;3.70;99.90
10492;DHT22;5293;51.464;-2.566;2022-12-07T17:05:26;3.60;99.90
10492;DHT22;5293;51.464;-2.566;2022-12-07T17:07:53;3.60;99.90
10492;DHT22;5293;51.464;-2.566;2022-12-07T17:10:19;3.60;99.90
10492;DHT22;5293;51.464;-2.566;2022-12-07T17:12:45;3.60;99.90
10492;DHT22;5293;51.464;-2.566;2022-12-07T17:15:11;3.40;99.90
10492;DHT22;5293;51.464;-2.566;2022-12-07T17:17:47;3.50;99.90
10492;DHT22;5293;51.464;-2.566;2022-12-07T17:20:16;3.40;99.90
10492;DHT22;5293;51.464;-2.566;2022-12-07T17:22:43;3.30;99.90
10492;DHT22;5293;51.464;-2.566;2022-12-07T17:25:09;3.30;99.90
10492;DHT22;5293;51.464;-2.566;2022-12-07T17:27:35;3.30;99.90
10492;DHT22;5293;51.464;-2.566;2022-12-07T17:30:02;3.30;99.90
10492;DHT22;5293;51.464;-2.566;2022-12-07T17:32:28;3.30;99.90
10492;DHT22;5293;51.464;-2.566;2022-12-07T17:34:54;3.30;99.90
10492;DHT22;5293;51.464;-2.566;2022-12-07T17:37:20;3.40;99.90
10492;DHT22;5293;51.464;-2.566;2022-12-07T17:39:45;3.40;99.90
10492;DHT22;5293;51.464;-2.566;2022-12-07T17:42:11;3.40;99.90
10492;DHT22;5293;51.464;-2.566;2022-12-07T17:44:55;3.30;99.90
10492;DHT22;5293;51.464;-2.566;2022-12-07T17:47:21;3.10;99.90
10492;DHT22;5293;51.464;-2.566;2022-12-07T17:49:46;3.00;99.90
10492;DHT22;5293;51.464;-2.566;2022-12-07T17:52:13;3.10;99.90
10492;DHT22;5293;51.464;-2.566;2022-12-07T17:54:57;2.90;99.90
10492;DHT22;5293;51.464;-2.566;2022-12-07T17:57:23;2.80;99.90
10492;DHT22;5293;51.464;-2.566;2022-12-07T17:59:49;2.80;99.90
10492;DHT22;5293;51.464;-2.566;2022-12-07T18:02:17;2.80;99.90
10492;DHT22;5293;51.464;-2.566;2022-12-07T18:04:42;2.80;99.90
10492;DHT22;5293;51.464;-2.566;2022-12-07T18:07:09;2.80;99.90
10492;DHT22;5293;51.464;-2.566;2022-12-07T18:09:35;2.80;99.90
10492;DHT22;5293;51.464;-2.566;2022-12-07T18:12:01;2.20;99.90
10492;DHT22;5293;51.464;-2.566;2022-12-07T18:14:27;2.70;99.90
10492;DHT22;5293;51.464;-2.566;2022-12-07T18:16:53;2.70;99.90
10492;DHT22;5293;51.464;-2.566;2022-12-07T18:19:18;2.70;99.90